sensor_id;sensor_type;location;lat;lon;timestamp;P1;durP1;ratioP1;P2;durP2;ratioP2
22068;SDS011;13887;57.196;-2.100;2023-02-28T00:00:39;11.37;;;10.97;;
22068;SDS011;13887;57.196;-2.100;2023-02-28T00:03:06;11.40;;;11.00;;
22068;SDS011;13887;57.196;-2.100;2023-02-28T00:05:33;11.87;;;11.47;;
22068;SDS011;13887;57.196;-2.100;2023-02-28T00:08:01;11.50;;;11.10;;
22068;SDS011;13887;57.196;-2.100;2023-02-28T00:10:30;11.53;;;11.13;;
22068;SDS011;13887;57.196;-2.100;2023-02-28T00:13:02;11.63;;;11.23;;
22068;SDS011;13887;57.196;-2.100;2023-02-28T00:15:31;11.60;;;11.20;;
22068;SDS011;13887;57.196;-2.100;2023-02-28T00:17:59;11.80;;;11.40;;
22068;SDS011;13887;57.196;-2.100;2023-02-28T00:20:26;11.47;;;11.07;;
22068;SDS011;13887;57.196;-2.100;2023-02-28T00:22:53;11.60;;;11.20;;
22068;SDS011;13887;57.196;-2.100;2023-02-28T00:25:22;11.30;;;10.90;;
22068;SDS011;13887;57.196;-2.100;2023-02-28T00:27:51;11.40;;;11.00;;
22068;SDS011;13887;57.196;-2.100;2023-02-28T00:30:19;11.57;;;11.17;;
22068;SDS011;13887;57.196;-2.100;2023-02-28T00:32:48;11.57;;;11.17;;
22068;SDS011;13887;57.196;-2.100;2023-02-28T00:35:16;11.60;;;11.20;;
22068;SDS011;13887;57.196;-2.100;2023-02-28T00:37:43;11.70;;;11.30;;
22068;SDS011;13887;57.196;-2.100;2023-02-28T00:40:11;11.80;;;11.40;;
22068;SDS011;13887;57.196;-2.100;2023-02-28T00:42:39;11.40;;;11.00;;
22068;SDS011;13887;57.196;-2.100;2023-02-28T00:45:06;11.63;;;11.23;;
22068;SDS011;13887;57.196;-2.100;2023-02-28T00:47:36;11.87;;;11.47;;
22068;SDS011;13887;57.196;-2.100;2023-02-28T00:50:04;11.80;;;11.40;;
22068;SDS011;13887;57.196;-2.100;2023-02-28T00:52:35;11.00;;;10.70;;
22068;SDS011;13887;57.196;-2.100;2023-02-28T00:55:02;11.60;;;11.20;;
22068;SDS011;13887;57.196;-2.100;2023-02-28T00:57:30;12.00;;;11.60;;
22068;SDS011;13887;57.196;-2.100;2023-02-28T00:59:57;11.50;;;11.10;;
22068;SDS011;13887;57.196;-2.100;2023-02-28T01:02:24;11.70;;;11.30;;
22068;SDS011;13887;57.196;-2.100;2023-02-28T01:04:51;12.13;;;11.73;;
22068;SDS011;13887;57.196;-2.100;2023-02-28T01:07:18;12.20;;;11.80;;
22068;SDS011;13887;57.196;-2.100;2023-02-28T01:09:46;11.90;;;11.50;;
22068;SDS011;13887;57.196;-2.100;2023-02-28T01:12:13;11.83;;;11.43;;
22068;SDS011;13887;57.196;-2.100;2023-02-28T01:14:40;12.33;;;11.93;;
22068;SDS011;13887;57.196;-2.100;2023-02-28T01:17:07;11.77;;;11.37;;
22068;SDS011;13887;57.196;-2.100;2023-02-28T01:19:34;11.80;;;11.40;;
22068;SDS011;13887;57.196;-2.100;2023-02-28T01:22:02;12.10;;;11.70;;
22068;SDS011;13887;57.196;-2.100;2023-02-28T01:24:30;12.10;;;11.70;;
22068;SDS011;13887;57.196;-2.100;2023-02-28T01:26:59;11.90;;;11.50;;
22068;SDS011;13887;57.196;-2.100;2023-02-28T01:29:26;12.10;;;11.70;;
22068;SDS011;13887;57.196;-2.100;2023-02-28T01:31:53;11.97;;;11.57;;
22068;SDS011;13887;57.196;-2.100;2023-02-28T01:34:20;11.50;;;11.10;;
22068;SDS011;13887;57.196;-2.100;2023-02-28T01:36:47;11.97;;;11.57;;
22068;SDS011;13887;57.196;-2.100;2023-02-28T01:39:14;12.03;;;11.63;;
22068;SDS011;13887;57.196;-2.100;2023-02-28T01:41:41;12.57;;;12.17;;
22068;SDS011;13887;57.196;-2.100;2023-02-28T01:47:14;12.10;;;11.70;;
22068;SDS011;13887;57.196;-2.100;2023-02-28T01:49:42;11.97;;;11.57;;
22068;SDS011;13887;57.196;-2.100;2023-02-28T01:52:09;11.53;;;11.13;;
22068;SDS011;13887;57.196;-2.100;2023-02-28T01:54:46;12.00;;;11.60;;
22068;SDS011;13887;57.196;-2.100;2023-02-28T01:57:19;11.67;;;11.27;;
22068;SDS011;13887;57.196;-2.100;2023-02-28T02:00:00;11.73;;;11.33;;
22068;SDS011;13887;57.196;-2.100;2023-02-28T02:02:38;12.30;;;11.90;;
22068;SDS011;13887;57.196;-2.100;2023-02-28T02:05:15;12.13;;;11.73;;
22068;SDS011;13887;57.196;-2.100;2023-02-28T02:07:47;12.27;;;11.87;;
22068;SDS011;13887;57.196;-2.100;2023-02-28T02:15:34;12.40;;;12.00;;
22068;SDS011;13887;57.196;-2.100;2023-02-28T02:21:09;12.57;;;12.17;;
22068;SDS011;13887;57.196;-2.100;2023-02-28T02:32:49;12.27;;;11.87;;
22068;SDS011;13887;57.196;-2.100;2023-02-28T02:34:56;12.37;;;11.97;;
22068;SDS011;13887;57.196;-2.100;2023-02-28T02:40:20;12.40;;;12.00;;
22068;SDS011;13887;57.196;-2.100;2023-02-28T02:43:05;12.47;;;12.07;;
22068;SDS011;13887;57.196;-2.100;2023-02-28T02:48:15;12.33;;;11.93;;
22068;SDS011;13887;57.196;-2.100;2023-02-28T02:50:46;12.17;;;11.77;;
22068;SDS011;13887;57.196;-2.100;2023-02-28T02:53:20;12.50;;;12.10;;
22068;SDS011;13887;57.196;-2.100;2023-02-28T02:55:53;12.27;;;11.87;;
22068;SDS011;13887;57.196;-2.100;2023-02-28T02:58:25;12.47;;;12.07;;
22068;SDS011;13887;57.196;-2.100;2023-02-28T03:00:56;12.43;;;12.03;;
22068;SDS011;13887;57.196;-2.100;2023-02-28T03:03:26;12.03;;;11.63;;
22068;SDS011;13887;57.196;-2.100;2023-02-28T03:05:56;11.97;;;11.57;;
22068;SDS011;13887;57.196;-2.100;2023-02-28T03:08:25;12.47;;;12.07;;
22068;SDS011;13887;57.196;-2.100;2023-02-28T03:10:58;12.10;;;11.70;;
22068;SDS011;13887;57.196;-2.100;2023-02-28T03:18:53;12.23;;;11.83;;
22068;SDS011;13887;57.196;-2.100;2023-02-28T03:24:08;12.17;;;11.77;;
22068;SDS011;13887;57.196;-2.100;2023-02-28T03:26:39;12.07;;;11.67;;
22068;SDS011;13887;57.196;-2.100;2023-02-28T03:29:13;12.47;;;12.07;;
22068;SDS011;13887;57.196;-2.100;2023-02-28T03:31:48;12.20;;;11.80;;
22068;SDS011;13887;57.196;-2.100;2023-02-28T03:36:48;12.17;;;11.77;;
22068;SDS011;13887;57.196;-2.100;2023-02-28T03:39:21;12.17;;;11.77;;
22068;SDS011;13887;57.196;-2.100;2023-02-28T03:41:59;12.30;;;11.90;;
22068;SDS011;13887;57.196;-2.100;2023-02-28T03:44:32;12.00;;;11.60;;
22068;SDS011;13887;57.196;-2.100;2023-02-28T03:49:45;12.10;;;11.70;;
22068;SDS011;13887;57.196;-2.100;2023-02-28T03:52:17;12.37;;;11.97;;
22068;SDS011;13887;57.196;-2.100;2023-02-28T03:54:48;12.60;;;12.20;;
22068;SDS011;13887;57.196;-2.100;2023-02-28T03:58:05;12.10;;;11.70;;
22068;SDS011;13887;57.196;-2.100;2023-02-28T04:00:12;12.50;;;12.10;;
22068;SDS011;13887;57.196;-2.100;2023-02-28T04:02:45;12.77;;;12.37;;
22068;SDS011;13887;57.196;-2.100;2023-02-28T04:05:12;12.60;;;12.20;;
22068;SDS011;13887;57.196;-2.100;2023-02-28T04:07:39;12.53;;;12.13;;
22068;SDS011;13887;57.196;-2.100;2023-02-28T04:10:06;12.03;;;11.63;;
22068;SDS011;13887;57.196;-2.100;2023-02-28T04:12:33;12.60;;;12.20;;
22068;SDS011;13887;57.196;-2.100;2023-02-28T04:15:00;12.40;;;12.00;;
22068;SDS011;13887;57.196;-2.100;2023-02-28T04:17:30;12.63;;;12.23;;
22068;SDS011;13887;57.196;-2.100;2023-02-28T04:19:57;12.50;;;12.10;;
22068;SDS011;13887;57.196;-2.100;2023-02-28T04:22:24;12.73;;;12.33;;
22068;SDS011;13887;57.196;-2.100;2023-02-28T04:24:54;12.27;;;11.87;;
22068;SDS011;13887;57.196;-2.100;2023-02-28T04:27:21;12.77;;;12.37;;
22068;SDS011;13887;57.196;-2.100;2023-02-28T04:29:48;12.00;;;11.60;;
22068;SDS011;13887;57.196;-2.100;2023-02-28T04:32:15;12.40;;;12.00;;
22068;SDS011;13887;57.196;-2.100;2023-02-28T04:34:42;12.33;;;11.93;;
22068;SDS011;13887;57.196;-2.100;2023-02-28T04:37:09;12.33;;;11.93;;
22068;SDS011;13887;57.196;-2.100;2023-02-28T04:39:39;12.53;;;12.13;;
22068;SDS011;13887;57.196;-2.100;2023-02-28T04:42:07;12.27;;;11.87;;
22068;SDS011;13887;57.196;-2.100;2023-02-28T04:44:34;12.07;;;11.67;;
22068;SDS011;13887;57.196;-2.100;2023-02-28T04:47:01;12.27;;;11.87;;
22068;SDS011;13887;57.196;-2.100;2023-02-28T04:49:28;12.40;;;12.00;;
22068;SDS011;13887;57.196;-2.100;2023-02-28T04:51:56;12.40;;;12.00;;
22068;SDS011;13887;57.196;-2.100;2023-02-28T04:54:23;12.53;;;12.13;;
22068;SDS011;13887;57.196;-2.100;2023-02-28T04:56:49;12.60;;;12.20;;
22068;SDS011;13887;57.196;-2.100;2023-02-28T04:59:17;12.87;;;12.47;;
22068;SDS011;13887;57.196;-2.100;2023-02-28T05:01:45;12.53;;;12.13;;
22068;SDS011;13887;57.196;-2.100;2023-02-28T05:04:14;12.70;;;12.30;;
22068;SDS011;13887;57.196;-2.100;2023-02-28T05:06:41;12.90;;;12.50;;
22068;SDS011;13887;57.196;-2.100;2023-02-28T05:09:08;12.90;;;12.50;;
22068;SDS011;13887;57.196;-2.100;2023-02-28T05:11:38;13.43;;;12.93;;
22068;SDS011;13887;57.196;-2.100;2023-02-28T05:14:08;12.70;;;12.30;;
22068;SDS011;13887;57.196;-2.100;2023-02-28T05:16:37;13.17;;;12.77;;
22068;SDS011;13887;57.196;-2.100;2023-02-28T05:19:05;12.83;;;12.43;;
22068;SDS011;13887;57.196;-2.100;2023-02-28T05:21:36;12.87;;;12.47;;
22068;SDS011;13887;57.196;-2.100;2023-02-28T05:24:06;12.87;;;12.47;;
22068;SDS011;13887;57.196;-2.100;2023-02-28T05:26:36;12.77;;;12.37;;
22068;SDS011;13887;57.196;-2.100;2023-02-28T05:29:05;12.70;;;12.30;;
22068;SDS011;13887;57.196;-2.100;2023-02-28T05:31:32;13.17;;;12.77;;
22068;SDS011;13887;57.196;-2.100;2023-02-28T05:33:59;12.67;;;12.27;;
22068;SDS011;13887;57.196;-2.100;2023-02-28T05:36:27;12.90;;;12.50;;
22068;SDS011;13887;57.196;-2.100;2023-02-28T05:38:54;12.97;;;12.57;;
22068;SDS011;13887;57.196;-2.100;2023-02-28T05:41:21;12.83;;;12.43;;
22068;SDS011;13887;57.196;-2.100;2023-02-28T05:43:48;12.80;;;12.40;;
22068;SDS011;13887;57.196;-2.100;2023-02-28T05:46:15;12.60;;;12.20;;
22068;SDS011;13887;57.196;-2.100;2023-02-28T05:48:45;12.93;;;12.53;;
22068;SDS011;13887;57.196;-2.100;2023-02-28T05:51:13;12.60;;;12.20;;
22068;SDS011;13887;57.196;-2.100;2023-02-28T05:53:41;13.00;;;12.60;;
22068;SDS011;13887;57.196;-2.100;2023-02-28T05:56:08;13.00;;;12.60;;
22068;SDS011;13887;57.196;-2.100;2023-02-28T05:58:35;12.67;;;12.27;;
22068;SDS011;13887;57.196;-2.100;2023-02-28T06:01:18;12.93;;;12.53;;
22068;SDS011;13887;57.196;-2.100;2023-02-28T06:03:47;12.90;;;12.50;;
22068;SDS011;13887;57.196;-2.100;2023-02-28T06:06:15;13.50;;;13.00;;
22068;SDS011;13887;57.196;-2.100;2023-02-28T06:08:42;13.10;;;12.70;;
22068;SDS011;13887;57.196;-2.100;2023-02-28T06:11:11;13.20;;;12.80;;
22068;SDS011;13887;57.196;-2.100;2023-02-28T06:13:38;12.93;;;12.53;;
22068;SDS011;13887;57.196;-2.100;2023-02-28T06:16:05;13.07;;;12.67;;
22068;SDS011;13887;57.196;-2.100;2023-02-28T06:18:32;13.27;;;12.87;;
22068;SDS011;13887;57.196;-2.100;2023-02-28T06:20:59;13.07;;;12.67;;
22068;SDS011;13887;57.196;-2.100;2023-02-28T06:23:26;13.33;;;12.90;;
22068;SDS011;13887;57.196;-2.100;2023-02-28T06:25:53;13.57;;;13.07;;
22068;SDS011;13887;57.196;-2.100;2023-02-28T06:28:25;13.23;;;12.83;;
22068;SDS011;13887;57.196;-2.100;2023-02-28T06:30:52;13.53;;;13.03;;
22068;SDS011;13887;57.196;-2.100;2023-02-28T06:33:19;13.33;;;12.93;;
22068;SDS011;13887;57.196;-2.100;2023-02-28T06:35:46;13.20;;;12.80;;
22068;SDS011;13887;57.196;-2.100;2023-02-28T06:38:16;12.70;;;12.30;;
22068;SDS011;13887;57.196;-2.100;2023-02-28T06:40:44;13.07;;;12.67;;
22068;SDS011;13887;57.196;-2.100;2023-02-28T06:43:12;13.20;;;12.80;;
22068;SDS011;13887;57.196;-2.100;2023-02-28T06:45:41;13.50;;;13.00;;
22068;SDS011;13887;57.196;-2.100;2023-02-28T06:48:11;12.80;;;12.40;;
22068;SDS011;13887;57.196;-2.100;2023-02-28T06:50:38;13.00;;;12.60;;
22068;SDS011;13887;57.196;-2.100;2023-02-28T06:53:05;12.63;;;12.23;;
22068;SDS011;13887;57.196;-2.100;2023-02-28T06:55:32;13.10;;;12.70;;
22068;SDS011;13887;57.196;-2.100;2023-02-28T06:57:59;13.50;;;13.00;;
22068;SDS011;13887;57.196;-2.100;2023-02-28T07:00:26;13.53;;;13.03;;
22068;SDS011;13887;57.196;-2.100;2023-02-28T07:02:53;13.17;;;12.77;;
22068;SDS011;13887;57.196;-2.100;2023-02-28T07:05:21;13.07;;;12.67;;
22068;SDS011;13887;57.196;-2.100;2023-02-28T07:07:48;12.50;;;12.10;;
22068;SDS011;13887;57.196;-2.100;2023-02-28T07:10:15;13.00;;;12.60;;
22068;SDS011;13887;57.196;-2.100;2023-02-28T07:12:45;12.93;;;12.53;;
22068;SDS011;13887;57.196;-2.100;2023-02-28T07:15:12;13.00;;;12.60;;
22068;SDS011;13887;57.196;-2.100;2023-02-28T07:17:39;13.80;;;13.30;;
22068;SDS011;13887;57.196;-2.100;2023-02-28T07:20:08;13.50;;;13.00;;
22068;SDS011;13887;57.196;-2.100;2023-02-28T07:22:35;13.50;;;13.00;;
22068;SDS011;13887;57.196;-2.100;2023-02-28T07:25:02;13.10;;;12.70;;
22068;SDS011;13887;57.196;-2.100;2023-02-28T07:27:29;13.73;;;13.23;;
22068;SDS011;13887;57.196;-2.100;2023-02-28T07:29:56;13.40;;;12.90;;
22068;SDS011;13887;57.196;-2.100;2023-02-28T07:32:23;13.10;;;12.70;;
22068;SDS011;13887;57.196;-2.100;2023-02-28T07:34:50;13.30;;;12.87;;
22068;SDS011;13887;57.196;-2.100;2023-02-28T07:37:17;12.93;;;12.53;;
22068;SDS011;13887;57.196;-2.100;2023-02-28T07:39:44;12.77;;;12.37;;
22068;SDS011;13887;57.196;-2.100;2023-02-28T07:42:12;13.27;;;12.87;;
22068;SDS011;13887;57.196;-2.100;2023-02-28T07:44:39;13.03;;;12.63;;
22068;SDS011;13887;57.196;-2.100;2023-02-28T07:47:07;12.63;;;12.23;;
22068;SDS011;13887;57.196;-2.100;2023-02-28T07:49:36;12.20;;;11.80;;
22068;SDS011;13887;57.196;-2.100;2023-02-28T07:52:03;13.07;;;12.67;;
22068;SDS011;13887;57.196;-2.100;2023-02-28T07:54:32;12.90;;;12.50;;
22068;SDS011;13887;57.196;-2.100;2023-02-28T07:57:00;12.70;;;12.30;;
22068;SDS011;13887;57.196;-2.100;2023-02-28T07:59:26;12.30;;;11.90;;
22068;SDS011;13887;57.196;-2.100;2023-02-28T08:01:57;12.80;;;12.40;;
22068;SDS011;13887;57.196;-2.100;2023-02-28T08:04:25;12.10;;;11.70;;
22068;SDS011;13887;57.196;-2.100;2023-02-28T08:06:53;12.53;;;12.13;;
22068;SDS011;13887;57.196;-2.100;2023-02-28T08:09:20;10.90;;;10.60;;
22068;SDS011;13887;57.196;-2.100;2023-02-28T08:11:47;12.70;;;12.30;;
22068;SDS011;13887;57.196;-2.100;2023-02-28T08:14:14;12.47;;;12.07;;
22068;SDS011;13887;57.196;-2.100;2023-02-28T08:16:41;12.73;;;12.33;;
22068;SDS011;13887;57.196;-2.100;2023-02-28T08:19:09;12.47;;;12.07;;
22068;SDS011;13887;57.196;-2.100;2023-02-28T08:21:36;12.30;;;11.90;;
22068;SDS011;13887;57.196;-2.100;2023-02-28T08:24:03;12.40;;;12.00;;
22068;SDS011;13887;57.196;-2.100;2023-02-28T08:26:30;12.10;;;11.70;;
22068;SDS011;13887;57.196;-2.100;2023-02-28T08:28:58;12.20;;;11.80;;
22068;SDS011;13887;57.196;-2.100;2023-02-28T08:31:27;11.77;;;11.37;;
22068;SDS011;13887;57.196;-2.100;2023-02-28T08:33:54;12.37;;;11.97;;
22068;SDS011;13887;57.196;-2.100;2023-02-28T08:36:25;12.20;;;11.80;;
22068;SDS011;13887;57.196;-2.100;2023-02-28T08:38:56;12.00;;;11.60;;
22068;SDS011;13887;57.196;-2.100;2023-02-28T08:41:23;12.00;;;11.60;;
22068;SDS011;13887;57.196;-2.100;2023-02-28T08:43:50;11.77;;;11.37;;
22068;SDS011;13887;57.196;-2.100;2023-02-28T08:46:17;12.40;;;12.00;;
22068;SDS011;13887;57.196;-2.100;2023-02-28T08:48:44;11.97;;;11.57;;
22068;SDS011;13887;57.196;-2.100;2023-02-28T08:51:15;11.80;;;11.40;;
22068;SDS011;13887;57.196;-2.100;2023-02-28T08:53:45;12.40;;;12.00;;
22068;SDS011;13887;57.196;-2.100;2023-02-28T08:56:13;11.97;;;11.57;;
22068;SDS011;13887;57.196;-2.100;2023-02-28T08:58:44;12.03;;;11.63;;
22068;SDS011;13887;57.196;-2.100;2023-02-28T09:01:16;12.40;;;12.00;;
22068;SDS011;13887;57.196;-2.100;2023-02-28T09:03:51;11.87;;;11.47;;
22068;SDS011;13887;57.196;-2.100;2023-02-28T09:06:20;12.33;;;11.93;;
22068;SDS011;13887;57.196;-2.100;2023-02-28T09:08:51;12.40;;;12.00;;
22068;SDS011;13887;57.196;-2.100;2023-02-28T09:11:22;12.20;;;11.80;;
22068;SDS011;13887;57.196;-2.100;2023-02-28T09:13:49;12.20;;;11.80;;
22068;SDS011;13887;57.196;-2.100;2023-02-28T09:16:17;12.07;;;11.67;;
22068;SDS011;13887;57.196;-2.100;2023-02-28T09:18:44;12.57;;;12.17;;
22068;SDS011;13887;57.196;-2.100;2023-02-28T09:21:12;12.10;;;11.70;;
22068;SDS011;13887;57.196;-2.100;2023-02-28T09:23:42;11.93;;;11.53;;
22068;SDS011;13887;57.196;-2.100;2023-02-28T09:26:20;12.27;;;11.87;;
22068;SDS011;13887;57.196;-2.100;2023-02-28T09:29:00;12.50;;;12.10;;
22068;SDS011;13887;57.196;-2.100;2023-02-28T09:31:29;12.43;;;12.03;;
22068;SDS011;13887;57.196;-2.100;2023-02-28T09:33:56;12.57;;;12.17;;
22068;SDS011;13887;57.196;-2.100;2023-02-28T09:36:25;12.50;;;12.10;;
22068;SDS011;13887;57.196;-2.100;2023-02-28T09:39:09;12.07;;;11.67;;
22068;SDS011;13887;57.196;-2.100;2023-02-28T09:41:43;12.40;;;12.00;;
22068;SDS011;13887;57.196;-2.100;2023-02-28T09:44:24;12.90;;;12.50;;
22068;SDS011;13887;57.196;-2.100;2023-02-28T09:50:18;11.93;;;11.53;;
22068;SDS011;13887;57.196;-2.100;2023-02-28T09:52:53;12.17;;;11.77;;
22068;SDS011;13887;57.196;-2.100;2023-02-28T09:55:37;12.70;;;12.30;;
22068;SDS011;13887;57.196;-2.100;2023-02-28T10:01:25;12.37;;;11.97;;
22068;SDS011;13887;57.196;-2.100;2023-02-28T10:03:59;17.30;;;15.57;;
22068;SDS011;13887;57.196;-2.100;2023-02-28T10:06:46;12.30;;;11.90;;
22068;SDS011;13887;57.196;-2.100;2023-02-28T10:09:26;12.30;;;11.90;;
22068;SDS011;13887;57.196;-2.100;2023-02-28T10:11:59;12.63;;;12.23;;
22068;SDS011;13887;57.196;-2.100;2023-02-28T10:14:31;12.97;;;12.57;;
22068;SDS011;13887;57.196;-2.100;2023-02-28T10:20:26;12.43;;;12.03;;
22068;SDS011;13887;57.196;-2.100;2023-02-28T10:23:03;12.07;;;11.67;;
22068;SDS011;13887;57.196;-2.100;2023-02-28T10:25:38;12.50;;;12.10;;
22068;SDS011;13887;57.196;-2.100;2023-02-28T10:28:16;12.37;;;11.97;;
22068;SDS011;13887;57.196;-2.100;2023-02-28T10:30:48;12.10;;;11.70;;
22068;SDS011;13887;57.196;-2.100;2023-02-28T10:33:19;12.43;;;12.03;;
22068;SDS011;13887;57.196;-2.100;2023-02-28T10:35:50;12.13;;;11.73;;
22068;SDS011;13887;57.196;-2.100;2023-02-28T10:38:25;11.93;;;11.53;;
22068;SDS011;13887;57.196;-2.100;2023-02-28T10:41:08;12.13;;;11.73;;
22068;SDS011;13887;57.196;-2.100;2023-02-28T10:43:38;12.10;;;11.70;;
22068;SDS011;13887;57.196;-2.100;2023-02-28T10:46:11;12.23;;;11.83;;
22068;SDS011;13887;57.196;-2.100;2023-02-28T10:49:03;11.87;;;11.47;;
22068;SDS011;13887;57.196;-2.100;2023-02-28T10:51:37;12.50;;;12.10;;
22068;SDS011;13887;57.196;-2.100;2023-02-28T10:54:06;12.77;;;12.37;;
22068;SDS011;13887;57.196;-2.100;2023-02-28T10:59:42;12.97;;;12.57;;
22068;SDS011;13887;57.196;-2.100;2023-02-28T11:04:59;12.80;;;12.40;;
22068;SDS011;13887;57.196;-2.100;2023-02-28T11:07:28;12.70;;;12.30;;
22068;SDS011;13887;57.196;-2.100;2023-02-28T11:10:18;13.20;;;12.80;;
22068;SDS011;13887;57.196;-2.100;2023-02-28T11:12:48;12.67;;;12.27;;
22068;SDS011;13887;57.196;-2.100;2023-02-28T11:15:21;12.30;;;11.90;;
22068;SDS011;13887;57.196;-2.100;2023-02-28T11:17:56;12.50;;;12.10;;
22068;SDS011;13887;57.196;-2.100;2023-02-28T11:20:31;12.47;;;12.07;;
22068;SDS011;13887;57.196;-2.100;2023-02-28T11:23:01;12.43;;;12.03;;
22068;SDS011;13887;57.196;-2.100;2023-02-28T11:25:35;12.90;;;12.50;;
22068;SDS011;13887;57.196;-2.100;2023-02-28T11:28:08;12.60;;;12.20;;
22068;SDS011;13887;57.196;-2.100;2023-02-28T11:30:59;12.93;;;12.53;;
22068;SDS011;13887;57.196;-2.100;2023-02-28T11:33:42;12.70;;;12.30;;
22068;SDS011;13887;57.196;-2.100;2023-02-28T11:38:59;13.00;;;12.60;;
22068;SDS011;13887;57.196;-2.100;2023-02-28T11:41:37;12.97;;;12.57;;
22068;SDS011;13887;57.196;-2.100;2023-02-28T11:47:26;13.13;;;12.73;;
22068;SDS011;13887;57.196;-2.100;2023-02-28T11:55:24;12.97;;;12.57;;
22068;SDS011;13887;57.196;-2.100;2023-02-28T11:58:07;13.10;;;12.70;;
22068;SDS011;13887;57.196;-2.100;2023-02-28T12:06:21;12.63;;;12.23;;
22068;SDS011;13887;57.196;-2.100;2023-02-28T12:25:48;13.50;;;13.00;;
22068;SDS011;13887;57.196;-2.100;2023-02-28T12:28:24;13.27;;;12.87;;
22068;SDS011;13887;57.196;-2.100;2023-02-28T12:31:11;13.27;;;12.87;;
22068;SDS011;13887;57.196;-2.100;2023-02-28T12:33:48;12.93;;;12.53;;
22068;SDS011;13887;57.196;-2.100;2023-02-28T12:36:19;13.33;;;12.90;;
22068;SDS011;13887;57.196;-2.100;2023-02-28T12:41:26;14.00;;;13.50;;
22068;SDS011;13887;57.196;-2.100;2023-02-28T12:44:11;13.63;;;13.13;;
22068;SDS011;13887;57.196;-2.100;2023-02-28T12:46:44;13.73;;;13.23;;
22068;SDS011;13887;57.196;-2.100;2023-02-28T12:49:37;13.80;;;13.30;;
22068;SDS011;13887;57.196;-2.100;2023-02-28T12:52:13;13.97;;;13.47;;
22068;SDS011;13887;57.196;-2.100;2023-02-28T12:54:53;13.10;;;12.70;;
22068;SDS011;13887;57.196;-2.100;2023-02-28T13:00:13;13.03;;;12.63;;
22068;SDS011;13887;57.196;-2.100;2023-02-28T13:09:12;12.70;;;12.30;;
22068;SDS011;13887;57.196;-2.100;2023-02-28T13:11:44;12.33;;;11.93;;
22068;SDS011;13887;57.196;-2.100;2023-02-28T13:19:44;13.03;;;12.63;;
22068;SDS011;13887;57.196;-2.100;2023-02-28T13:27:54;13.07;;;12.67;;
22068;SDS011;13887;57.196;-2.100;2023-02-28T13:36:10;13.23;;;12.83;;
22068;SDS011;13887;57.196;-2.100;2023-02-28T13:38:45;12.63;;;12.23;;
22068;SDS011;13887;57.196;-2.100;2023-02-28T13:44:10;13.27;;;12.87;;
22068;SDS011;13887;57.196;-2.100;2023-02-28T13:51:50;12.80;;;12.40;;
22068;SDS011;13887;57.196;-2.100;2023-02-28T14:11:51;12.73;;;12.33;;
22068;SDS011;13887;57.196;-2.100;2023-02-28T14:17:02;13.60;;;13.10;;
22068;SDS011;13887;57.196;-2.100;2023-02-28T14:19:34;13.27;;;12.87;;
22068;SDS011;13887;57.196;-2.100;2023-02-28T14:25:04;13.20;;;12.80;;
22068;SDS011;13887;57.196;-2.100;2023-02-28T14:27:48;13.23;;;12.83;;
22068;SDS011;13887;57.196;-2.100;2023-02-28T14:36:10;12.60;;;12.20;;
22068;SDS011;13887;57.196;-2.100;2023-02-28T14:39:01;13.10;;;12.70;;
22068;SDS011;13887;57.196;-2.100;2023-02-28T14:41:38;13.20;;;12.80;;
22068;SDS011;13887;57.196;-2.100;2023-02-28T14:46:48;12.97;;;12.57;;
22068;SDS011;13887;57.196;-2.100;2023-02-28T14:51:50;12.80;;;12.40;;
22068;SDS011;13887;57.196;-2.100;2023-02-28T14:54:46;12.87;;;12.47;;
22068;SDS011;13887;57.196;-2.100;2023-02-28T14:57:25;12.60;;;12.20;;
22068;SDS011;13887;57.196;-2.100;2023-02-28T15:02:55;12.10;;;11.70;;
22068;SDS011;13887;57.196;-2.100;2023-02-28T15:05:33;12.60;;;12.20;;
22068;SDS011;13887;57.196;-2.100;2023-02-28T15:08:04;12.40;;;12.00;;
22068;SDS011;13887;57.196;-2.100;2023-02-28T15:10:42;12.40;;;12.00;;
22068;SDS011;13887;57.196;-2.100;2023-02-28T15:13:13;12.37;;;11.97;;
22068;SDS011;13887;57.196;-2.100;2023-02-28T15:16:01;12.20;;;11.80;;
22068;SDS011;13887;57.196;-2.100;2023-02-28T15:18:43;12.33;;;11.93;;
22068;SDS011;13887;57.196;-2.100;2023-02-28T15:21:18;11.67;;;11.27;;
22068;SDS011;13887;57.196;-2.100;2023-02-28T15:24:07;11.93;;;11.53;;
22068;SDS011;13887;57.196;-2.100;2023-02-28T15:26:38;12.27;;;11.87;;
22068;SDS011;13887;57.196;-2.100;2023-02-28T15:29:29;12.13;;;11.73;;
22068;SDS011;13887;57.196;-2.100;2023-02-28T15:32:03;11.77;;;11.37;;
22068;SDS011;13887;57.196;-2.100;2023-02-28T15:34:36;12.33;;;11.93;;
22068;SDS011;13887;57.196;-2.100;2023-02-28T15:42:38;12.77;;;12.37;;
22068;SDS011;13887;57.196;-2.100;2023-02-28T15:45:05;12.03;;;11.63;;
22068;SDS011;13887;57.196;-2.100;2023-02-28T15:47:53;12.40;;;12.00;;
22068;SDS011;13887;57.196;-2.100;2023-02-28T15:50:27;12.10;;;11.70;;
22068;SDS011;13887;57.196;-2.100;2023-02-28T15:52:57;11.63;;;11.23;;
22068;SDS011;13887;57.196;-2.100;2023-02-28T15:55:26;12.80;;;12.40;;
22068;SDS011;13887;57.196;-2.100;2023-02-28T15:57:55;12.00;;;11.60;;
22068;SDS011;13887;57.196;-2.100;2023-02-28T16:00:29;12.23;;;11.83;;
22068;SDS011;13887;57.196;-2.100;2023-02-28T16:02:59;12.00;;;11.60;;
22068;SDS011;13887;57.196;-2.100;2023-02-28T16:05:27;12.37;;;11.97;;
22068;SDS011;13887;57.196;-2.100;2023-02-28T16:08:00;12.53;;;12.13;;
22068;SDS011;13887;57.196;-2.100;2023-02-28T16:10:42;12.40;;;12.00;;
22068;SDS011;13887;57.196;-2.100;2023-02-28T16:13:11;11.83;;;11.43;;
22068;SDS011;13887;57.196;-2.100;2023-02-28T16:15:42;12.30;;;11.90;;
22068;SDS011;13887;57.196;-2.100;2023-02-28T16:18:10;11.93;;;11.53;;
22068;SDS011;13887;57.196;-2.100;2023-02-28T16:20:38;11.97;;;11.57;;
22068;SDS011;13887;57.196;-2.100;2023-02-28T16:23:06;12.07;;;11.67;;
22068;SDS011;13887;57.196;-2.100;2023-02-28T16:25:35;12.00;;;11.60;;
22068;SDS011;13887;57.196;-2.100;2023-02-28T16:28:07;11.60;;;11.20;;
22068;SDS011;13887;57.196;-2.100;2023-02-28T16:30:42;11.70;;;11.30;;
22068;SDS011;13887;57.196;-2.100;2023-02-28T16:33:09;12.67;;;12.27;;
22068;SDS011;13887;57.196;-2.100;2023-02-28T16:35:36;12.10;;;11.70;;
22068;SDS011;13887;57.196;-2.100;2023-02-28T16:38:03;12.07;;;11.67;;
22068;SDS011;13887;57.196;-2.100;2023-02-28T16:40:33;12.10;;;11.70;;
22068;SDS011;13887;57.196;-2.100;2023-02-28T16:43:05;12.30;;;11.90;;
22068;SDS011;13887;57.196;-2.100;2023-02-28T16:45:35;12.00;;;11.60;;
22068;SDS011;13887;57.196;-2.100;2023-02-28T16:48:02;12.10;;;11.70;;
22068;SDS011;13887;57.196;-2.100;2023-02-28T16:50:30;12.50;;;12.10;;
22068;SDS011;13887;57.196;-2.100;2023-02-28T16:53:01;12.40;;;12.00;;
22068;SDS011;13887;57.196;-2.100;2023-02-28T16:55:28;13.10;;;12.70;;
22068;SDS011;13887;57.196;-2.100;2023-02-28T16:58:00;12.93;;;12.53;;
22068;SDS011;13887;57.196;-2.100;2023-02-28T17:00:29;13.30;;;12.90;;
22068;SDS011;13887;57.196;-2.100;2023-02-28T17:03:01;12.10;;;11.70;;
22068;SDS011;13887;57.196;-2.100;2023-02-28T17:05:34;12.63;;;12.23;;
22068;SDS011;13887;57.196;-2.100;2023-02-28T17:08:04;12.73;;;12.33;;
22068;SDS011;13887;57.196;-2.100;2023-02-28T17:10:35;12.03;;;11.63;;
22068;SDS011;13887;57.196;-2.100;2023-02-28T17:13:02;12.67;;;12.27;;
22068;SDS011;13887;57.196;-2.100;2023-02-28T17:15:40;12.30;;;11.90;;
22068;SDS011;13887;57.196;-2.100;2023-02-28T17:18:08;12.17;;;11.77;;